Flight Track Log - Related Links

Times and Time Zones

All times are in EST time to prevent confusion due to time zone crossing. See the KAL823 flight status page for this flight to view local times or setup timezone preferences in your user account.

Time Position Orientation Groundspeed Altitude Reporting Facility
EST Latitude Longitude Course Direction KTS MPH feet Rate Location/Type
Wed 08:32:00 PM 37.5232 126.4719 17° North  Level Estimated
Wed 08:33:00 PM 37.5773 126.4934 17° North  Level Estimated
Wed 08:34:00 PM 37.6314 126.5149 17° North  Level Estimated
Wed 08:35:00 PM 37.6855 126.5365 17° North  Level Estimated
Wed 08:36:00 PM 37.7396 126.5580 17° North  Level Estimated
Wed 08:37:00 PM 37.7937 126.5796 18° North  Level Estimated
Wed 08:38:00 PM 37.8478 126.6012 18° North  Level Estimated
Wed 08:39:00 PM 37.9019 126.6229 18° North  Level Estimated
Wed 08:40:00 PM 37.9560 126.6446 18° North  Level Estimated
Wed 08:41:00 PM 38.0122 126.6672 18° North  Level Estimated
Wed 08:42:00 PM 38.0684 126.6898 18° North  Level Estimated
Wed 08:43:00 PM 38.1247 126.7124 18° North  Level Estimated
Wed 08:44:00 PM 38.1809 126.7351 18° North  Level Estimated
Wed 08:45:00 PM 38.2371 126.7578 18° North  Level Estimated
Wed 08:46:00 PM 38.2933 126.7806 18° North  Level Estimated
Wed 08:47:00 PM 38.3495 126.8034 18° North  Level Estimated
Wed 08:47:57 PM 37.2330 125.7970 18° North 346 398 21,600  Level FlightAware ADS-B
Wed 08:48:00 PM 38.4057 126.8262 18° North  Level Estimated
Wed 08:48:21 PM 37.2380 125.7560 279° West 346 398 21,600  Level FlightAware ADS-B
Wed 08:49:00 PM 38.4628 126.8494 18° North  Level Estimated
Wed 08:49:33 PM 37.2550 125.6350 280° West 346 398 21,600  Level FlightAware ADS-B
Wed 08:49:45 PM 37.2580 125.6150 281° West 346 398 21,600  Level FlightAware ADS-B
Wed 08:50:45 PM 37.2720 125.5140 280° West 346 398 21,600  Level FlightAware ADS-B
Wed 08:51:21 PM 37.2810 125.4530 281° West 346 398 21,600  Level FlightAware ADS-B
Wed 08:54:00 PM 37.4283 125.5276 22° Northeast  Level Estimated
Wed 08:55:00 PM 37.4839 125.5559 22° Northeast  Level Estimated
Wed 08:56:00 PM 37.5395 125.5842 22° Northeast  Level Estimated
Wed 08:57:00 PM 37.5950 125.6125 22° Northeast  Level Estimated
Wed 08:58:00 PM 37.6506 125.6409 22° Northeast  Level Estimated
Wed 08:59:00 PM 37.7061 125.6693 22° Northeast  Level Estimated
Wed 09:00:00 PM 37.7617 125.6977 22° Northeast  Level Estimated
Wed 09:01:00 PM 37.8172 125.7262 22° Northeast  Level Estimated
Wed 09:02:00 PM 37.8727 125.7548 22° Northeast  Level Estimated
Wed 09:03:00 PM 37.9283 125.7834 22° Northeast  Level Estimated
Wed 09:04:00 PM 37.9838 125.8120 22° Northeast  Level Estimated
Wed 09:05:00 PM 38.0393 125.8407 22° Northeast  Level Estimated
Wed 09:06:00 PM 38.0948 125.8694 22° Northeast  Level Estimated
Wed 09:07:00 PM 38.1503 125.8981 22° Northeast  Level Estimated
Wed 09:08:00 PM 38.2058 125.9269 22° Northeast  Level Estimated
Wed 09:09:00 PM 38.2612 125.9558 22° Northeast  Level Estimated
Wed 09:10:00 PM 38.3167 125.9847 22° Northeast  Level Estimated
Wed 09:11:00 PM 38.3722 126.0136 22° Northeast  Level Estimated
Wed 09:12:00 PM 38.4268 126.0421 22° Northeast  Level Estimated
Wed 09:13:00 PM 38.4813 126.0707 22° Northeast  Level Estimated
Wed 09:14:00 PM 38.5359 126.0993 22° Northeast  Level Estimated
Wed 09:15:00 PM 38.5905 126.1279 22° Northeast  Level Estimated
Wed 09:16:00 PM 38.6450 126.1566 22° Northeast  Level Estimated
Wed 09:17:00 PM 38.6996 126.1854 22° Northeast  Level Estimated
Wed 09:18:00 PM 38.7541 126.2141 22° Northeast  Level Estimated
Wed 09:19:00 PM 38.8086 126.2430 22° Northeast  Level Estimated
Wed 09:20:00 PM 38.8632 126.2718 22° Northeast  Level Estimated
Wed 09:21:00 PM 38.9177 126.3007 22° Northeast  Level Estimated
Wed 09:22:00 PM 38.9722 126.3297 22° Northeast  Level Estimated
Wed 09:23:00 PM 39.0267 126.3587 22° Northeast  Level Estimated
Wed 09:24:00 PM 39.0812 126.3877 22° Northeast  Level Estimated
Wed 09:25:00 PM 39.1357 126.4168 22° Northeast  Level Estimated
Wed 09:26:00 PM 39.1901 126.4460 23° Northeast  Level Estimated
Wed 09:27:00 PM 39.2446 126.4752 23° Northeast  Level Estimated
Wed 09:28:00 PM 39.2991 126.5044 23° Northeast  Level Estimated
Wed 09:29:00 PM 39.3535 126.5337 23° Northeast  Level Estimated
Wed 09:30:00 PM 39.4080 126.5630 23° Northeast  Level Estimated
Wed 09:31:00 PM 39.4624 126.5923 23° Northeast  Level Estimated
Wed 09:32:00 PM 39.5169 126.6217 23° Northeast  Level Estimated
Wed 09:33:00 PM 39.5713 126.6512 23° Northeast  Level Estimated
Wed 09:34:00 PM 39.6257 126.6807 23° Northeast  Level Estimated
Wed 09:35:00 PM 39.6801 126.7103 23° Northeast  Level Estimated
Wed 09:36:00 PM 39.7345 126.7399 23° Northeast  Level Estimated
Wed 09:37:00 PM 39.7889 126.7695 23° Northeast  Level Estimated
Wed 09:38:00 PM 39.8433 126.7992 23° Northeast  Level Estimated
Wed 09:39:00 PM 39.8977 126.8289 23° Northeast  Level Estimated
Wed 09:40:00 PM 39.9521 126.8587 23° Northeast  Level Estimated
Wed 09:41:00 PM 40.0065 126.8885 23° Northeast  Level Estimated
Wed 09:42:00 PM 40.0608 126.9184 23° Northeast  Level Estimated
Wed 09:43:00 PM 40.1152 126.9483 23° Northeast  Level Estimated
Wed 09:44:00 PM 40.1695 126.9783 23° Northeast  Level Estimated
Wed 09:45:00 PM 40.2239 127.0083 23° Northeast  Level Estimated
Wed 09:46:00 PM 40.2782 127.0384 23° Northeast  Level Estimated
Wed 09:47:00 PM 40.3325 127.0685 23° Northeast  Level Estimated
Wed 09:48:00 PM 40.3868 127.0987 23° Northeast  Level Estimated
Wed 09:49:00 PM 40.4411 127.1289 23° Northeast  Level Estimated
Wed 09:50:00 PM 40.4954 127.1592 23° Northeast  Level Estimated
Wed 09:51:00 PM 40.5497 127.1895 23° Northeast  Level Estimated
Wed 09:52:00 PM 40.6040 127.2198 23° Northeast  Level Estimated
Wed 09:53:00 PM 40.6583 127.2502 23° Northeast  Level Estimated
Wed 09:54:00 PM 40.7125 127.2807 23° Northeast  Level Estimated
Wed 09:55:00 PM 40.7668 127.3112 23° Northeast  Level Estimated
Wed 09:56:00 PM 40.8210 127.3418 23° Northeast  Level Estimated
Wed 09:57:00 PM 40.8753 127.3724 23° Northeast  Level Estimated
Wed 09:58:00 PM 40.9295 127.4030 23° Northeast  Level Estimated
Wed 09:59:00 PM 40.9837 127.4337 23° Northeast  Level Estimated
Wed 10:00:00 PM 41.0380 127.4645 23° Northeast  Level Estimated
Wed 10:01:00 PM 41.0922 127.4953 23° Northeast  Level Estimated
Wed 10:02:00 PM 41.1464 127.5262 23° Northeast  Level Estimated
Wed 10:03:00 PM 41.2006 127.5571 23° Northeast  Level Estimated
Wed 10:04:00 PM 41.2548 127.5881 23° Northeast  Level Estimated
Wed 10:05:00 PM 41.3089 127.6191 23° Northeast  Level Estimated
Wed 10:06:00 PM 41.3631 127.6501 23° Northeast  Level Estimated
Wed 10:07:00 PM 41.4173 127.6813 23° Northeast  Level Estimated
Wed 10:08:00 PM 41.4714 127.7124 23° Northeast  Level Estimated
Wed 10:09:00 PM 41.5256 127.7437 23° Northeast  Level Estimated
Wed 10:10:00 PM 41.5797 127.7749 23° Northeast  Level Estimated
Wed 10:11:00 PM 41.6338 127.8063 23° Northeast  Level Estimated
Wed 10:12:00 PM 41.6879 127.8376 23° Northeast  Level Estimated
Wed 10:13:00 PM 41.7421 127.8691 23° Northeast  Level Estimated
Wed 10:14:00 PM 41.7962 127.9006 23° Northeast  Level Estimated
Wed 10:15:00 PM 41.8502 127.9321 23° Northeast  Level Estimated
Wed 10:16:00 PM 41.9043 127.9637 23° Northeast  Level Estimated
Wed 10:17:00 PM 41.9584 127.9954 24° Northeast  Level Estimated
Wed 10:18:00 PM 42.0125 128.0271 24° Northeast  Level Estimated
Wed 10:19:00 PM 42.0665 128.0588 24° Northeast  Level Estimated
Wed 10:20:00 PM 42.1206 128.0906 24° Northeast  Level Estimated
Wed 10:21:00 PM 42.1746 128.1225 24° Northeast  Level Estimated
Wed 10:22:00 PM 42.2286 128.1544 24° Northeast  Level Estimated
Wed 10:23:00 PM 42.2827 128.1864 24° Northeast  Level Estimated
Wed 10:24:00 PM 42.3367 128.2184 24° Northeast  Level Estimated
Wed 10:25:00 PM 42.3907 128.2505 24° Northeast  Level Estimated
Wed 10:26:00 PM 42.4447 128.2826 24° Northeast  Level Estimated
Wed 10:27:00 PM 42.4987 128.3148 24° Northeast  Level Estimated
Wed 10:28:00 PM 42.5526 128.3471 24° Northeast  Level Estimated
Wed 10:29:00 PM 42.6066 128.3794 24° Northeast  Level Estimated
Wed 10:30:00 PM 42.6606 128.4117 24° Northeast  Level Estimated
Wed 10:31:00 PM 42.7145 128.4442 24° Northeast  Level Estimated
Wed 10:32:00 PM 42.7685 128.4766 24° Northeast  Level Estimated
Wed 10:33:00 PM 42.8224 128.5092 24° Northeast  Level Estimated
Wed 10:34:00 PM 42.8763 128.5417 24° Northeast  Level Estimated
Wed 10:35:00 PM 42.9302 128.5744 24° Northeast  Level Estimated
Wed 10:36:00 PM 42.9841 128.6071 24° Northeast  Level Estimated
Wed 10:37:00 PM 43.0380 128.6398 24° Northeast  Level Estimated
Wed 10:38:00 PM 43.0919 128.6727 24° Northeast  Level Estimated
Wed 10:39:00 PM 43.1458 128.7055 24° Northeast  Level Estimated
Wed 10:40:00 PM 43.1996 128.7385 24° Northeast  Level Estimated
Wed 10:41:00 PM 43.2535 128.7715 24° Northeast  Level Estimated
Wed 10:42:00 PM 43.3074 128.8045 24° Northeast  Level Estimated
Wed 10:43:00 PM 43.3612 128.8376 24° Northeast  Level Estimated
Wed 10:44:00 PM 43.4150 128.8708 24° Northeast  Level Estimated
Wed 10:45:00 PM 43.4688 128.9040 24° Northeast  Level Estimated
Wed 10:46:00 PM 43.5227 128.9373 24° Northeast  Level Estimated
Wed 10:47:00 PM 43.5765 128.9706 24° Northeast  Level Estimated
Wed 10:48:00 PM 43.6302 129.0040 24° Northeast  Level Estimated
Wed 10:49:00 PM 43.6840 129.0375 24° Northeast  Level Estimated
Wed 10:50:00 PM 43.7378 129.0710 24° Northeast  Level Estimated
Wed 10:51:00 PM 43.7916 129.1046 24° Northeast  Level Estimated
Wed 10:52:00 PM 43.8453 129.1382 24° Northeast  Level Estimated
Wed 10:53:00 PM 43.8991 129.1720 24° Northeast  Level Estimated
Wed 10:54:00 PM 43.9528 129.2057 24° Northeast  Level Estimated
Wed 10:55:00 PM 44.0065 129.2396 24° Northeast  Level Estimated
Wed 10:56:00 PM 44.0602 129.2735 24° Northeast  Level Estimated
Wed 10:57:00 PM 44.1139 129.3074 24° Northeast  Level Estimated
Wed 10:58:00 PM 44.1676 129.3414 24° Northeast  Level Estimated
Wed 10:59:00 PM 44.2213 129.3755 24° Northeast  Level Estimated
Wed 11:00:00 PM 44.2749 129.4096 24° Northeast  Level Estimated

Login

Don't have an account? Register now (free) for customized features, flight alerts, and more!